sensor_id;sensor_type;location;lat;lon;timestamp;P1;durP1;ratioP1;P2;durP2;ratioP2
3849;SDS011;1940;51.052;13.678;2022-09-27T00:00:56;2.73;;;2.00;;
3849;SDS011;1940;51.052;13.678;2022-09-27T00:03:26;2.10;;;1.90;;
3849;SDS011;1940;51.052;13.678;2022-09-27T00:08:31;1.63;;;1.53;;
3849;SDS011;1940;51.052;13.678;2022-09-27T00:11:02;1.50;;;1.30;;
3849;SDS011;1940;51.052;13.678;2022-09-27T00:13:29;2.50;;;1.60;;
3849;SDS011;1940;51.052;13.678;2022-09-27T00:15:55;2.13;;;1.53;;
3849;SDS011;1940;51.052;13.678;2022-09-27T00:18:25;1.70;;;1.40;;
3849;SDS011;1940;51.052;13.678;2022-09-27T00:20:51;4.20;;;1.40;;
3849;SDS011;1940;51.052;13.678;2022-09-27T00:23:17;3.17;;;1.30;;
3849;SDS011;1940;51.052;13.678;2022-09-27T00:25:42;2.80;;;1.17;;
3849;SDS011;1940;51.052;13.678;2022-09-27T00:28:19;1.70;;;1.40;;
3849;SDS011;1940;51.052;13.678;2022-09-27T00:30:44;1.53;;;1.30;;
3849;SDS011;1940;51.052;13.678;2022-09-27T00:33:10;1.90;;;1.60;;
3849;SDS011;1940;51.052;13.678;2022-09-27T00:35:35;2.17;;;1.50;;
3849;SDS011;1940;51.052;13.678;2022-09-27T00:38:01;1.97;;;1.47;;
3849;SDS011;1940;51.052;13.678;2022-09-27T00:40:27;2.00;;;1.47;;
3849;SDS011;1940;51.052;13.678;2022-09-27T00:42:52;2.10;;;1.40;;
3849;SDS011;1940;51.052;13.678;2022-09-27T00:45:17;1.30;;;1.20;;
3849;SDS011;1940;51.052;13.678;2022-09-27T00:47:48;2.40;;;1.47;;
3849;SDS011;1940;51.052;13.678;2022-09-27T00:50:23;3.00;;;1.40;;
3849;SDS011;1940;51.052;13.678;2022-09-27T00:53:03;3.00;;;1.30;;
3849;SDS011;1940;51.052;13.678;2022-09-27T00:55:34;1.67;;;1.47;;
3849;SDS011;1940;51.052;13.678;2022-09-27T00:58:04;6.10;;;1.50;;
3849;SDS011;1940;51.052;13.678;2022-09-27T01:00:31;1.40;;;1.30;;
3849;SDS011;1940;51.052;13.678;2022-09-27T01:02:56;2.23;;;1.53;;
3849;SDS011;1940;51.052;13.678;2022-09-27T01:05:24;1.80;;;1.27;;
3849;SDS011;1940;51.052;13.678;2022-09-27T01:07:52;1.67;;;1.57;;
3849;SDS011;1940;51.052;13.678;2022-09-27T01:10:23;3.23;;;1.80;;
3849;SDS011;1940;51.052;13.678;2022-09-27T01:13:04;3.03;;;1.47;;
3849;SDS011;1940;51.052;13.678;2022-09-27T01:15:52;3.20;;;1.90;;
3849;SDS011;1940;51.052;13.678;2022-09-27T01:18:56;2.10;;;1.80;;
3849;SDS011;1940;51.052;13.678;2022-09-27T01:21:42;2.20;;;1.57;;
3849;SDS011;1940;51.052;13.678;2022-09-27T01:24:38;1.67;;;1.43;;
3849;SDS011;1940;51.052;13.678;2022-09-27T01:30:10;1.90;;;1.70;;
3849;SDS011;1940;51.052;13.678;2022-09-27T01:35:37;2.50;;;1.80;;
3849;SDS011;1940;51.052;13.678;2022-09-27T01:38:17;2.10;;;1.70;;
3849;SDS011;1940;51.052;13.678;2022-09-27T01:41:00;1.87;;;1.77;;
3849;SDS011;1940;51.052;13.678;2022-09-27T01:43:39;2.70;;;1.93;;
3849;SDS011;1940;51.052;13.678;2022-09-27T01:46:20;1.87;;;1.67;;
3849;SDS011;1940;51.052;13.678;2022-09-27T01:48:51;3.40;;;1.70;;
3849;SDS011;1940;51.052;13.678;2022-09-27T01:51:21;2.53;;;1.60;;
3849;SDS011;1940;51.052;13.678;2022-09-27T01:54:00;2.87;;;1.77;;
3849;SDS011;1940;51.052;13.678;2022-09-27T01:56:31;1.73;;;1.63;;
3849;SDS011;1940;51.052;13.678;2022-09-27T01:59:04;3.20;;;1.90;;
3849;SDS011;1940;51.052;13.678;2022-09-27T02:01:34;2.70;;;2.37;;
3849;SDS011;1940;51.052;13.678;2022-09-27T02:04:02;2.00;;;1.80;;
3849;SDS011;1940;51.052;13.678;2022-09-27T02:06:34;1.97;;;1.77;;
3849;SDS011;1940;51.052;13.678;2022-09-27T02:09:11;3.03;;;1.70;;
3849;SDS011;1940;51.052;13.678;2022-09-27T02:11:42;2.50;;;1.90;;
3849;SDS011;1940;51.052;13.678;2022-09-27T02:14:32;2.93;;;2.13;;
3849;SDS011;1940;51.052;13.678;2022-09-27T02:17:22;4.20;;;1.97;;
3849;SDS011;1940;51.052;13.678;2022-09-27T02:20:10;2.17;;;1.70;;
3849;SDS011;1940;51.052;13.678;2022-09-27T02:22:44;3.03;;;2.23;;
3849;SDS011;1940;51.052;13.678;2022-09-27T02:27:50;2.90;;;2.10;;
3849;SDS011;1940;51.052;13.678;2022-09-27T02:30:35;3.00;;;2.27;;
3849;SDS011;1940;51.052;13.678;2022-09-27T02:33:01;3.10;;;2.40;;
3849;SDS011;1940;51.052;13.678;2022-09-27T02:35:28;3.67;;;2.90;;
3849;SDS011;1940;51.052;13.678;2022-09-27T02:37:58;3.20;;;2.80;;
3849;SDS011;1940;51.052;13.678;2022-09-27T02:40:24;5.50;;;3.63;;
3849;SDS011;1940;51.052;13.678;2022-09-27T02:42:54;3.73;;;3.00;;
3849;SDS011;1940;51.052;13.678;2022-09-27T02:45:21;4.90;;;3.10;;
3849;SDS011;1940;51.052;13.678;2022-09-27T02:50:49;18.43;;;3.87;;
3849;SDS011;1940;51.052;13.678;2022-09-27T02:56:24;4.60;;;3.27;;
3849;SDS011;1940;51.052;13.678;2022-09-27T02:59:13;4.13;;;3.30;;
3849;SDS011;1940;51.052;13.678;2022-09-27T03:02:07;4.53;;;3.30;;
3849;SDS011;1940;51.052;13.678;2022-09-27T03:05:00;3.60;;;3.00;;
3849;SDS011;1940;51.052;13.678;2022-09-27T03:07:32;4.50;;;3.53;;
3849;SDS011;1940;51.052;13.678;2022-09-27T03:09:58;5.07;;;3.43;;
3849;SDS011;1940;51.052;13.678;2022-09-27T03:12:24;4.20;;;3.43;;
3849;SDS011;1940;51.052;13.678;2022-09-27T03:14:50;3.47;;;2.80;;
3849;SDS011;1940;51.052;13.678;2022-09-27T03:17:17;4.23;;;3.13;;
3849;SDS011;1940;51.052;13.678;2022-09-27T03:19:43;5.87;;;3.67;;
3849;SDS011;1940;51.052;13.678;2022-09-27T03:22:08;4.23;;;3.30;;
3849;SDS011;1940;51.052;13.678;2022-09-27T03:24:34;6.13;;;4.07;;
3849;SDS011;1940;51.052;13.678;2022-09-27T03:26:59;5.97;;;4.93;;
3849;SDS011;1940;51.052;13.678;2022-09-27T03:29:25;6.87;;;4.43;;
3849;SDS011;1940;51.052;13.678;2022-09-27T03:31:51;8.77;;;5.30;;
3849;SDS011;1940;51.052;13.678;2022-09-27T03:34:17;8.30;;;5.47;;
3849;SDS011;1940;51.052;13.678;2022-09-27T03:36:42;9.77;;;5.77;;
3849;SDS011;1940;51.052;13.678;2022-09-27T03:39:07;7.80;;;5.87;;
3849;SDS011;1940;51.052;13.678;2022-09-27T03:41:33;7.40;;;5.60;;
3849;SDS011;1940;51.052;13.678;2022-09-27T03:43:59;7.97;;;5.83;;
3849;SDS011;1940;51.052;13.678;2022-09-27T03:46:24;7.80;;;6.07;;
3849;SDS011;1940;51.052;13.678;2022-09-27T03:48:50;11.23;;;6.77;;
3849;SDS011;1940;51.052;13.678;2022-09-27T03:51:16;8.80;;;5.60;;
3849;SDS011;1940;51.052;13.678;2022-09-27T03:53:42;9.83;;;6.60;;
3849;SDS011;1940;51.052;13.678;2022-09-27T03:56:08;12.13;;;6.37;;
3849;SDS011;1940;51.052;13.678;2022-09-27T03:58:34;8.60;;;6.50;;
3849;SDS011;1940;51.052;13.678;2022-09-27T04:00:59;12.43;;;7.13;;
3849;SDS011;1940;51.052;13.678;2022-09-27T04:03:25;11.07;;;7.33;;
3849;SDS011;1940;51.052;13.678;2022-09-27T04:05:51;10.90;;;6.87;;
3849;SDS011;1940;51.052;13.678;2022-09-27T04:08:17;9.40;;;7.00;;
3849;SDS011;1940;51.052;13.678;2022-09-27T04:10:43;13.77;;;7.33;;
3849;SDS011;1940;51.052;13.678;2022-09-27T04:13:09;9.00;;;6.60;;
3849;SDS011;1940;51.052;13.678;2022-09-27T04:15:34;10.63;;;6.43;;
3849;SDS011;1940;51.052;13.678;2022-09-27T04:18:01;9.30;;;5.87;;
3849;SDS011;1940;51.052;13.678;2022-09-27T04:20:26;9.40;;;6.40;;
3849;SDS011;1940;51.052;13.678;2022-09-27T04:22:52;8.77;;;5.80;;
3849;SDS011;1940;51.052;13.678;2022-09-27T04:25:17;7.97;;;5.40;;
3849;SDS011;1940;51.052;13.678;2022-09-27T04:27:43;9.50;;;6.03;;
3849;SDS011;1940;51.052;13.678;2022-09-27T04:30:10;7.50;;;5.30;;
3849;SDS011;1940;51.052;13.678;2022-09-27T04:32:43;9.50;;;5.40;;
3849;SDS011;1940;51.052;13.678;2022-09-27T04:35:10;11.80;;;6.97;;
3849;SDS011;1940;51.052;13.678;2022-09-27T04:37:55;8.33;;;5.80;;
3849;SDS011;1940;51.052;13.678;2022-09-27T04:40:21;9.37;;;6.20;;
3849;SDS011;1940;51.052;13.678;2022-09-27T04:42:47;10.67;;;5.97;;
3849;SDS011;1940;51.052;13.678;2022-09-27T04:45:13;9.60;;;5.57;;
3849;SDS011;1940;51.052;13.678;2022-09-27T04:47:42;9.97;;;6.30;;
3849;SDS011;1940;51.052;13.678;2022-09-27T04:50:12;14.53;;;7.10;;
3849;SDS011;1940;51.052;13.678;2022-09-27T04:52:38;11.83;;;7.10;;
3849;SDS011;1940;51.052;13.678;2022-09-27T04:55:04;11.27;;;6.47;;
3849;SDS011;1940;51.052;13.678;2022-09-27T04:57:30;11.07;;;6.50;;
3849;SDS011;1940;51.052;13.678;2022-09-27T04:59:56;12.17;;;7.10;;
3849;SDS011;1940;51.052;13.678;2022-09-27T05:02:22;12.13;;;6.50;;
3849;SDS011;1940;51.052;13.678;2022-09-27T05:04:48;9.70;;;7.10;;
3849;SDS011;1940;51.052;13.678;2022-09-27T05:07:13;19.00;;;10.80;;
3849;SDS011;1940;51.052;13.678;2022-09-27T05:09:39;18.17;;;10.13;;
3849;SDS011;1940;51.052;13.678;2022-09-27T05:12:04;19.00;;;9.97;;
3849;SDS011;1940;51.052;13.678;2022-09-27T05:14:32;14.60;;;8.70;;
3849;SDS011;1940;51.052;13.678;2022-09-27T05:16:58;13.53;;;7.63;;
3849;SDS011;1940;51.052;13.678;2022-09-27T05:19:23;11.83;;;8.30;;
3849;SDS011;1940;51.052;13.678;2022-09-27T05:21:49;12.83;;;7.67;;
3849;SDS011;1940;51.052;13.678;2022-09-27T05:24:14;12.47;;;7.53;;
3849;SDS011;1940;51.052;13.678;2022-09-27T05:26:40;17.50;;;7.00;;
3849;SDS011;1940;51.052;13.678;2022-09-27T05:29:06;11.10;;;7.37;;
3849;SDS011;1940;51.052;13.678;2022-09-27T05:31:31;13.03;;;7.43;;
3849;SDS011;1940;51.052;13.678;2022-09-27T05:33:57;11.23;;;7.30;;
3849;SDS011;1940;51.052;13.678;2022-09-27T05:36:22;15.83;;;8.17;;
3849;SDS011;1940;51.052;13.678;2022-09-27T05:38:48;13.30;;;8.03;;
3849;SDS011;1940;51.052;13.678;2022-09-27T05:41:13;12.00;;;6.90;;
3849;SDS011;1940;51.052;13.678;2022-09-27T05:43:39;17.33;;;7.30;;
3849;SDS011;1940;51.052;13.678;2022-09-27T05:46:05;10.53;;;6.60;;
3849;SDS011;1940;51.052;13.678;2022-09-27T05:48:31;9.10;;;6.37;;
3849;SDS011;1940;51.052;13.678;2022-09-27T05:50:56;11.23;;;6.57;;
3849;SDS011;1940;51.052;13.678;2022-09-27T05:53:22;10.90;;;6.47;;
3849;SDS011;1940;51.052;13.678;2022-09-27T05:55:47;12.13;;;7.07;;
3849;SDS011;1940;51.052;13.678;2022-09-27T05:58:13;11.60;;;6.50;;
3849;SDS011;1940;51.052;13.678;2022-09-27T06:00:40;10.13;;;6.67;;
3849;SDS011;1940;51.052;13.678;2022-09-27T06:03:07;12.47;;;6.60;;
3849;SDS011;1940;51.052;13.678;2022-09-27T06:05:35;9.30;;;6.53;;
3849;SDS011;1940;51.052;13.678;2022-09-27T06:08:03;10.77;;;6.63;;
3849;SDS011;1940;51.052;13.678;2022-09-27T06:10:30;10.50;;;6.70;;
3849;SDS011;1940;51.052;13.678;2022-09-27T06:13:03;10.13;;;6.60;;
3849;SDS011;1940;51.052;13.678;2022-09-27T06:15:31;9.53;;;6.53;;
3849;SDS011;1940;51.052;13.678;2022-09-27T06:18:02;9.57;;;6.63;;
3849;SDS011;1940;51.052;13.678;2022-09-27T06:20:32;15.37;;;6.17;;
3849;SDS011;1940;51.052;13.678;2022-09-27T06:23:11;9.63;;;6.30;;
3849;SDS011;1940;51.052;13.678;2022-09-27T06:25:38;8.70;;;6.10;;
3849;SDS011;1940;51.052;13.678;2022-09-27T06:28:05;8.87;;;5.10;;
3849;SDS011;1940;51.052;13.678;2022-09-27T06:30:30;8.53;;;5.80;;
3849;SDS011;1940;51.052;13.678;2022-09-27T06:32:57;6.80;;;5.00;;
3849;SDS011;1940;51.052;13.678;2022-09-27T06:35:24;8.97;;;5.33;;
3849;SDS011;1940;51.052;13.678;2022-09-27T06:37:50;9.07;;;5.40;;
3849;SDS011;1940;51.052;13.678;2022-09-27T06:40:16;8.40;;;5.10;;
3849;SDS011;1940;51.052;13.678;2022-09-27T06:42:42;7.63;;;5.47;;
3849;SDS011;1940;51.052;13.678;2022-09-27T06:45:08;14.03;;;5.67;;
3849;SDS011;1940;51.052;13.678;2022-09-27T06:47:34;11.20;;;6.17;;
3849;SDS011;1940;51.052;13.678;2022-09-27T06:50:00;7.40;;;5.00;;
3849;SDS011;1940;51.052;13.678;2022-09-27T06:52:30;8.73;;;4.60;;
3849;SDS011;1940;51.052;13.678;2022-09-27T06:54:56;8.07;;;5.13;;
3849;SDS011;1940;51.052;13.678;2022-09-27T06:57:21;8.47;;;4.90;;
3849;SDS011;1940;51.052;13.678;2022-09-27T07:00:05;9.40;;;5.17;;
3849;SDS011;1940;51.052;13.678;2022-09-27T07:02:50;5.50;;;4.03;;
3849;SDS011;1940;51.052;13.678;2022-09-27T07:05:17;5.10;;;3.63;;
3849;SDS011;1940;51.052;13.678;2022-09-27T07:07:44;5.33;;;3.50;;
3849;SDS011;1940;51.052;13.678;2022-09-27T07:10:10;9.03;;;3.30;;
3849;SDS011;1940;51.052;13.678;2022-09-27T07:12:36;4.33;;;3.17;;
3849;SDS011;1940;51.052;13.678;2022-09-27T07:15:02;4.50;;;3.40;;
3849;SDS011;1940;51.052;13.678;2022-09-27T07:17:28;5.40;;;4.03;;
3849;SDS011;1940;51.052;13.678;2022-09-27T07:19:54;4.20;;;3.03;;
3849;SDS011;1940;51.052;13.678;2022-09-27T07:22:20;3.93;;;3.20;;
3849;SDS011;1940;51.052;13.678;2022-09-27T07:24:45;4.50;;;3.33;;
3849;SDS011;1940;51.052;13.678;2022-09-27T07:27:11;3.80;;;2.87;;
3849;SDS011;1940;51.052;13.678;2022-09-27T07:29:36;6.57;;;2.70;;
3849;SDS011;1940;51.052;13.678;2022-09-27T07:32:03;6.60;;;2.83;;
3849;SDS011;1940;51.052;13.678;2022-09-27T07:34:28;4.93;;;3.20;;
3849;SDS011;1940;51.052;13.678;2022-09-27T07:36:57;4.63;;;3.00;;
3849;SDS011;1940;51.052;13.678;2022-09-27T07:39:23;5.00;;;2.93;;
3849;SDS011;1940;51.052;13.678;2022-09-27T07:41:50;6.00;;;2.87;;
3849;SDS011;1940;51.052;13.678;2022-09-27T07:44:16;3.60;;;2.30;;
3849;SDS011;1940;51.052;13.678;2022-09-27T07:46:41;2.83;;;2.17;;
3849;SDS011;1940;51.052;13.678;2022-09-27T07:49:07;3.60;;;2.03;;
3849;SDS011;1940;51.052;13.678;2022-09-27T07:51:32;4.17;;;2.30;;
3849;SDS011;1940;51.052;13.678;2022-09-27T07:53:58;3.97;;;1.90;;
3849;SDS011;1940;51.052;13.678;2022-09-27T07:56:25;3.20;;;1.93;;
3849;SDS011;1940;51.052;13.678;2022-09-27T07:58:51;2.93;;;1.90;;
3849;SDS011;1940;51.052;13.678;2022-09-27T08:01:16;3.90;;;1.97;;
3849;SDS011;1940;51.052;13.678;2022-09-27T08:03:42;2.00;;;1.60;;
3849;SDS011;1940;51.052;13.678;2022-09-27T08:06:08;2.43;;;1.53;;
3849;SDS011;1940;51.052;13.678;2022-09-27T08:08:34;1.60;;;1.50;;
3849;SDS011;1940;51.052;13.678;2022-09-27T08:10:59;1.37;;;1.23;;
3849;SDS011;1940;51.052;13.678;2022-09-27T08:13:25;1.20;;;1.10;;
3849;SDS011;1940;51.052;13.678;2022-09-27T08:15:50;4.20;;;1.30;;
3849;SDS011;1940;51.052;13.678;2022-09-27T08:18:16;1.27;;;1.10;;
3849;SDS011;1940;51.052;13.678;2022-09-27T08:20:42;1.70;;;1.17;;
3849;SDS011;1940;51.052;13.678;2022-09-27T08:23:07;1.40;;;1.10;;
3849;SDS011;1940;51.052;13.678;2022-09-27T08:25:33;1.57;;;1.27;;
3849;SDS011;1940;51.052;13.678;2022-09-27T08:28:00;1.10;;;0.90;;
3849;SDS011;1940;51.052;13.678;2022-09-27T08:30:27;1.30;;;0.93;;
3849;SDS011;1940;51.052;13.678;2022-09-27T08:32:58;1.00;;;0.90;;
3849;SDS011;1940;51.052;13.678;2022-09-27T08:35:26;1.53;;;1.03;;
3849;SDS011;1940;51.052;13.678;2022-09-27T08:37:53;1.00;;;0.90;;
3849;SDS011;1940;51.052;13.678;2022-09-27T08:40:19;1.00;;;0.80;;
3849;SDS011;1940;51.052;13.678;2022-09-27T08:43:11;1.37;;;0.80;;
3849;SDS011;1940;51.052;13.678;2022-09-27T08:48:58;0.97;;;0.80;;
3849;SDS011;1940;51.052;13.678;2022-09-27T08:51:43;1.10;;;0.80;;
3849;SDS011;1940;51.052;13.678;2022-09-27T08:54:13;1.23;;;0.80;;
3849;SDS011;1940;51.052;13.678;2022-09-27T08:56:44;1.43;;;0.97;;
3849;SDS011;1940;51.052;13.678;2022-09-27T08:59:12;0.90;;;0.70;;
3849;SDS011;1940;51.052;13.678;2022-09-27T09:01:47;1.67;;;0.80;;
3849;SDS011;1940;51.052;13.678;2022-09-27T09:04:22;0.87;;;0.70;;
3849;SDS011;1940;51.052;13.678;2022-09-27T09:07:09;1.00;;;0.73;;
3849;SDS011;1940;51.052;13.678;2022-09-27T09:13:27;1.27;;;0.70;;
3849;SDS011;1940;51.052;13.678;2022-09-27T09:16:21;1.37;;;1.00;;
3849;SDS011;1940;51.052;13.678;2022-09-27T09:19:05;0.97;;;0.80;;
3849;SDS011;1940;51.052;13.678;2022-09-27T09:30:40;1.33;;;0.80;;
3849;SDS011;1940;51.052;13.678;2022-09-27T09:35:56;1.00;;;0.70;;
3849;SDS011;1940;51.052;13.678;2022-09-27T09:38:44;1.47;;;0.70;;
3849;SDS011;1940;51.052;13.678;2022-09-27T09:41:19;1.03;;;0.70;;
3849;SDS011;1940;51.052;13.678;2022-09-27T09:44:00;1.27;;;0.80;;
3849;SDS011;1940;51.052;13.678;2022-09-27T09:46:51;0.90;;;0.80;;
3849;SDS011;1940;51.052;13.678;2022-09-27T09:51:49;1.57;;;0.70;;
3849;SDS011;1940;51.052;13.678;2022-09-27T09:54:31;1.50;;;0.80;;
3849;SDS011;1940;51.052;13.678;2022-09-27T09:57:05;2.40;;;0.90;;
3849;SDS011;1940;51.052;13.678;2022-09-27T10:00:00;1.10;;;0.80;;
3849;SDS011;1940;51.052;13.678;2022-09-27T10:05:00;1.50;;;0.87;;
3849;SDS011;1940;51.052;13.678;2022-09-27T10:07:27;1.00;;;0.80;;
3849;SDS011;1940;51.052;13.678;2022-09-27T10:09:54;0.80;;;0.60;;
3849;SDS011;1940;51.052;13.678;2022-09-27T10:12:23;0.80;;;0.60;;
3849;SDS011;1940;51.052;13.678;2022-09-27T10:14:49;0.87;;;0.60;;
3849;SDS011;1940;51.052;13.678;2022-09-27T10:17:19;1.20;;;0.70;;
3849;SDS011;1940;51.052;13.678;2022-09-27T10:19:47;1.83;;;0.80;;
3849;SDS011;1940;51.052;13.678;2022-09-27T10:22:23;0.80;;;0.60;;
3849;SDS011;1940;51.052;13.678;2022-09-27T10:24:58;1.70;;;0.80;;
3849;SDS011;1940;51.052;13.678;2022-09-27T10:27:26;1.33;;;0.80;;
3849;SDS011;1940;51.052;13.678;2022-09-27T10:29:56;0.90;;;0.70;;
3849;SDS011;1940;51.052;13.678;2022-09-27T10:32:24;2.03;;;0.70;;
3849;SDS011;1940;51.052;13.678;2022-09-27T10:35:17;0.90;;;0.80;;
3849;SDS011;1940;51.052;13.678;2022-09-27T10:38:11;0.80;;;0.60;;
3849;SDS011;1940;51.052;13.678;2022-09-27T10:40:41;1.53;;;0.70;;
3849;SDS011;1940;51.052;13.678;2022-09-27T10:51:45;0.80;;;0.60;;
3849;SDS011;1940;51.052;13.678;2022-09-27T10:54:18;1.00;;;0.70;;
3849;SDS011;1940;51.052;13.678;2022-09-27T10:56:44;1.00;;;0.70;;
3849;SDS011;1940;51.052;13.678;2022-09-27T10:59:20;0.80;;;0.60;;
3849;SDS011;1940;51.052;13.678;2022-09-27T11:01:47;1.47;;;1.10;;
3849;SDS011;1940;51.052;13.678;2022-09-27T11:04:19;0.80;;;0.60;;
3849;SDS011;1940;51.052;13.678;2022-09-27T11:07:10;1.27;;;0.80;;
3849;SDS011;1940;51.052;13.678;2022-09-27T11:09:52;1.00;;;0.73;;
3849;SDS011;1940;51.052;13.678;2022-09-27T11:12:20;2.30;;;0.70;;
3849;SDS011;1940;51.052;13.678;2022-09-27T11:14:51;0.70;;;0.60;;
3849;SDS011;1940;51.052;13.678;2022-09-27T11:17:34;1.10;;;0.70;;
3849;SDS011;1940;51.052;13.678;2022-09-27T11:23:11;1.23;;;0.80;;
3849;SDS011;1940;51.052;13.678;2022-09-27T11:28:30;2.30;;;0.70;;
3849;SDS011;1940;51.052;13.678;2022-09-27T11:44:49;0.80;;;0.70;;
3849;SDS011;1940;51.052;13.678;2022-09-27T11:47:21;1.17;;;0.70;;
3849;SDS011;1940;51.052;13.678;2022-09-27T11:50:17;0.97;;;0.80;;
3849;SDS011;1940;51.052;13.678;2022-09-27T11:53:16;1.77;;;0.70;;
3849;SDS011;1940;51.052;13.678;2022-09-27T11:55:58;3.70;;;0.80;;
3849;SDS011;1940;51.052;13.678;2022-09-27T12:10:01;2.60;;;0.70;;
3849;SDS011;1940;51.052;13.678;2022-09-27T12:12:34;1.60;;;0.73;;
3849;SDS011;1940;51.052;13.678;2022-09-27T12:15:02;1.00;;;0.70;;
3849;SDS011;1940;51.052;13.678;2022-09-27T12:17:35;0.70;;;0.60;;
3849;SDS011;1940;51.052;13.678;2022-09-27T12:20:08;1.80;;;0.63;;
3849;SDS011;1940;51.052;13.678;2022-09-27T12:22:49;1.10;;;0.80;;
3849;SDS011;1940;51.052;13.678;2022-09-27T12:25:20;0.80;;;0.60;;
3849;SDS011;1940;51.052;13.678;2022-09-27T12:27:50;0.80;;;0.60;;
3849;SDS011;1940;51.052;13.678;2022-09-27T12:30:17;0.83;;;0.63;;
3849;SDS011;1940;51.052;13.678;2022-09-27T12:35:50;1.63;;;1.47;;
3849;SDS011;1940;51.052;13.678;2022-09-27T12:38:19;3.27;;;1.90;;
3849;SDS011;1940;51.052;13.678;2022-09-27T12:41:01;1.73;;;0.80;;
3849;SDS011;1940;51.052;13.678;2022-09-27T12:43:31;0.70;;;0.60;;
3849;SDS011;1940;51.052;13.678;2022-09-27T12:52:09;0.80;;;0.60;;
3849;SDS011;1940;51.052;13.678;2022-09-27T12:55:02;1.20;;;0.70;;
3849;SDS011;1940;51.052;13.678;2022-09-27T13:06:25;1.33;;;0.80;;
3849;SDS011;1940;51.052;13.678;2022-09-27T13:09:20;1.27;;;1.03;;
3849;SDS011;1940;51.052;13.678;2022-09-27T13:12:07;1.03;;;0.80;;
3849;SDS011;1940;51.052;13.678;2022-09-27T13:14:40;0.90;;;0.70;;
3849;SDS011;1940;51.052;13.678;2022-09-27T13:23:03;0.70;;;0.70;;
3849;SDS011;1940;51.052;13.678;2022-09-27T13:35:25;1.83;;;0.80;;
3849;SDS011;1940;51.052;13.678;2022-09-27T13:41:16;1.73;;;0.70;;
3849;SDS011;1940;51.052;13.678;2022-09-27T13:43:45;0.90;;;0.70;;
3849;SDS011;1940;51.052;13.678;2022-09-27T13:49:45;0.80;;;0.80;;
3849;SDS011;1940;51.052;13.678;2022-09-27T13:55:00;1.10;;;0.97;;
3849;SDS011;1940;51.052;13.678;2022-09-27T13:57:37;1.00;;;0.80;;
3849;SDS011;1940;51.052;13.678;2022-09-27T14:00:12;0.90;;;0.60;;
3849;SDS011;1940;51.052;13.678;2022-09-27T14:02:57;1.17;;;1.00;;
3849;SDS011;1940;51.052;13.678;2022-09-27T14:05:27;1.63;;;1.10;;
3849;SDS011;1940;51.052;13.678;2022-09-27T14:08:02;1.10;;;1.00;;
3849;SDS011;1940;51.052;13.678;2022-09-27T14:10:29;1.00;;;0.70;;
3849;SDS011;1940;51.052;13.678;2022-09-27T14:12:56;2.50;;;1.30;;
3849;SDS011;1940;51.052;13.678;2022-09-27T14:15:26;1.40;;;0.90;;
3849;SDS011;1940;51.052;13.678;2022-09-27T14:17:54;1.30;;;1.00;;
3849;SDS011;1940;51.052;13.678;2022-09-27T14:20:40;2.23;;;1.03;;
3849;SDS011;1940;51.052;13.678;2022-09-27T14:23:26;1.50;;;0.97;;
3849;SDS011;1940;51.052;13.678;2022-09-27T14:25:53;1.00;;;0.70;;
3849;SDS011;1940;51.052;13.678;2022-09-27T14:28:27;1.40;;;0.70;;
3849;SDS011;1940;51.052;13.678;2022-09-27T14:33:49;1.10;;;1.00;;
3849;SDS011;1940;51.052;13.678;2022-09-27T14:36:29;1.63;;;1.10;;
3849;SDS011;1940;51.052;13.678;2022-09-27T14:39:31;2.10;;;1.10;;
3849;SDS011;1940;51.052;13.678;2022-09-27T14:41:59;1.10;;;1.00;;
3849;SDS011;1940;51.052;13.678;2022-09-27T14:44:27;1.00;;;0.90;;
3849;SDS011;1940;51.052;13.678;2022-09-27T14:49:46;1.67;;;1.00;;
3849;SDS011;1940;51.052;13.678;2022-09-27T14:52:21;0.80;;;0.60;;
3849;SDS011;1940;51.052;13.678;2022-09-27T14:54:57;1.00;;;0.80;;
3849;SDS011;1940;51.052;13.678;2022-09-27T14:57:26;1.77;;;1.00;;
3849;SDS011;1940;51.052;13.678;2022-09-27T14:59:56;1.40;;;0.80;;
3849;SDS011;1940;51.052;13.678;2022-09-27T15:02:23;1.00;;;0.80;;
3849;SDS011;1940;51.052;13.678;2022-09-27T15:04:50;0.90;;;0.70;;
3849;SDS011;1940;51.052;13.678;2022-09-27T15:07:17;1.30;;;0.97;;
3849;SDS011;1940;51.052;13.678;2022-09-27T15:09:46;1.10;;;0.87;;
3849;SDS011;1940;51.052;13.678;2022-09-27T15:12:22;1.40;;;1.10;;
3849;SDS011;1940;51.052;13.678;2022-09-27T15:14:50;1.20;;;0.90;;
3849;SDS011;1940;51.052;13.678;2022-09-27T15:17:18;1.10;;;0.80;;
3849;SDS011;1940;51.052;13.678;2022-09-27T15:19:54;1.47;;;1.00;;
3849;SDS011;1940;51.052;13.678;2022-09-27T15:22:30;1.43;;;0.90;;
3849;SDS011;1940;51.052;13.678;2022-09-27T15:25:10;1.50;;;1.10;;
3849;SDS011;1940;51.052;13.678;2022-09-27T15:27:44;1.00;;;0.87;;
3849;SDS011;1940;51.052;13.678;2022-09-27T15:30:15;2.40;;;1.20;;
3849;SDS011;1940;51.052;13.678;2022-09-27T15:32:46;4.90;;;0.97;;
3849;SDS011;1940;51.052;13.678;2022-09-27T15:35:19;3.50;;;1.40;;
3849;SDS011;1940;51.052;13.678;2022-09-27T15:37:48;1.97;;;1.10;;
3849;SDS011;1940;51.052;13.678;2022-09-27T15:42:55;1.40;;;1.07;;
3849;SDS011;1940;51.052;13.678;2022-09-27T15:45:27;1.33;;;1.13;;
3849;SDS011;1940;51.052;13.678;2022-09-27T15:47:54;1.40;;;1.00;;
3849;SDS011;1940;51.052;13.678;2022-09-27T15:52:54;1.50;;;1.13;;
3849;SDS011;1940;51.052;13.678;2022-09-27T15:55:22;2.20;;;1.63;;
3849;SDS011;1940;51.052;13.678;2022-09-27T15:57:54;1.33;;;1.10;;
3849;SDS011;1940;51.052;13.678;2022-09-27T16:00:23;2.67;;;1.40;;
3849;SDS011;1940;51.052;13.678;2022-09-27T16:02:50;1.80;;;1.20;;
3849;SDS011;1940;51.052;13.678;2022-09-27T16:05:16;1.63;;;1.30;;
3849;SDS011;1940;51.052;13.678;2022-09-27T16:07:41;1.17;;;1.07;;
3849;SDS011;1940;51.052;13.678;2022-09-27T16:10:14;1.37;;;1.20;;
3849;SDS011;1940;51.052;13.678;2022-09-27T16:12:42;1.77;;;1.27;;
3849;SDS011;1940;51.052;13.678;2022-09-27T16:15:09;2.10;;;1.27;;
3849;SDS011;1940;51.052;13.678;2022-09-27T16:17:36;1.83;;;1.37;;
3849;SDS011;1940;51.052;13.678;2022-09-27T16:20:03;2.37;;;1.27;;
3849;SDS011;1940;51.052;13.678;2022-09-27T16:22:29;2.60;;;1.47;;
3849;SDS011;1940;51.052;13.678;2022-09-27T16:24:55;2.07;;;1.20;;
3849;SDS011;1940;51.052;13.678;2022-09-27T16:27:22;4.47;;;1.20;;
3849;SDS011;1940;51.052;13.678;2022-09-27T16:29:48;2.07;;;1.10;;
3849;SDS011;1940;51.052;13.678;2022-09-27T16:32:13;1.10;;;1.00;;
3849;SDS011;1940;51.052;13.678;2022-09-27T16:34:39;1.20;;;1.07;;
3849;SDS011;1940;51.052;13.678;2022-09-27T16:37:05;1.70;;;1.07;;
3849;SDS011;1940;51.052;13.678;2022-09-27T16:39:31;3.70;;;1.10;;
3849;SDS011;1940;51.052;13.678;2022-09-27T16:41:56;1.80;;;1.30;;
3849;SDS011;1940;51.052;13.678;2022-09-27T16:44:23;1.20;;;1.00;;
3849;SDS011;1940;51.052;13.678;2022-09-27T16:46:49;6.93;;;1.27;;
3849;SDS011;1940;51.052;13.678;2022-09-27T16:49:14;1.33;;;1.20;;
3849;SDS011;1940;51.052;13.678;2022-09-27T16:51:59;2.33;;;1.63;;
3849;SDS011;1940;51.052;13.678;2022-09-27T16:54:24;3.57;;;1.33;;
3849;SDS011;1940;51.052;13.678;2022-09-27T16:56:53;3.23;;;1.50;;
3849;SDS011;1940;51.052;13.678;2022-09-27T16:59:19;2.93;;;1.53;;
3849;SDS011;1940;51.052;13.678;2022-09-27T17:01:45;3.00;;;1.53;;
3849;SDS011;1940;51.052;13.678;2022-09-27T17:04:11;3.20;;;1.83;;
3849;SDS011;1940;51.052;13.678;2022-09-27T17:06:38;3.40;;;1.53;;
3849;SDS011;1940;51.052;13.678;2022-09-27T17:09:04;3.53;;;1.87;;
3849;SDS011;1940;51.052;13.678;2022-09-27T17:11:30;2.40;;;1.50;;
3849;SDS011;1940;51.052;13.678;2022-09-27T17:13:56;3.40;;;1.80;;
3849;SDS011;1940;51.052;13.678;2022-09-27T17:16:22;3.60;;;1.50;;
3849;SDS011;1940;51.052;13.678;2022-09-27T17:18:48;4.70;;;1.70;;
3849;SDS011;1940;51.052;13.678;2022-09-27T17:21:14;3.37;;;2.07;;
3849;SDS011;1940;51.052;13.678;2022-09-27T17:23:40;2.17;;;1.70;;
3849;SDS011;1940;51.052;13.678;2022-09-27T17:26:24;3.73;;;1.60;;
3849;SDS011;1940;51.052;13.678;2022-09-27T17:28:51;5.27;;;1.67;;
3849;SDS011;1940;51.052;13.678;2022-09-27T17:31:21;2.50;;;1.67;;
3849;SDS011;1940;51.052;13.678;2022-09-27T17:33:47;3.03;;;1.60;;
3849;SDS011;1940;51.052;13.678;2022-09-27T17:36:21;3.53;;;1.30;;